sensor_id;sensor_type;location;lat;lon;timestamp;temperature;humidity
14079;DHT22;7115;50.150;8.568;2024-01-27T00:00:23;8.90;99.90
14079;DHT22;7115;50.150;8.568;2024-01-27T00:02:50;8.80;99.90
14079;DHT22;7115;50.150;8.568;2024-01-27T00:05:18;8.80;99.90
14079;DHT22;7115;50.150;8.568;2024-01-27T00:07:46;8.80;99.90
14079;DHT22;7115;50.150;8.568;2024-01-27T00:10:13;8.80;99.90
14079;DHT22;7115;50.150;8.568;2024-01-27T00:12:40;8.80;99.90
14079;DHT22;7115;50.150;8.568;2024-01-27T00:15:08;8.70;99.90
14079;DHT22;7115;50.150;8.568;2024-01-27T00:17:35;8.70;99.90
14079;DHT22;7115;50.150;8.568;2024-01-27T00:20:03;8.70;99.90
14079;DHT22;7115;50.150;8.568;2024-01-27T00:22:30;8.70;99.90
14079;DHT22;7115;50.150;8.568;2024-01-27T00:24:59;8.70;99.90
14079;DHT22;7115;50.150;8.568;2024-01-27T00:27:26;8.60;99.90
14079;DHT22;7115;50.150;8.568;2024-01-27T00:29:53;8.60;99.90
14079;DHT22;7115;50.150;8.568;2024-01-27T00:32:20;8.60;99.90
14079;DHT22;7115;50.150;8.568;2024-01-27T00:34:47;8.60;99.90
14079;DHT22;7115;50.150;8.568;2024-01-27T00:37:14;8.50;99.90
14079;DHT22;7115;50.150;8.568;2024-01-27T00:39:41;8.50;99.90
14079;DHT22;7115;50.150;8.568;2024-01-27T00:42:10;8.50;99.90
14079;DHT22;7115;50.150;8.568;2024-01-27T00:44:37;8.50;99.90
14079;DHT22;7115;50.150;8.568;2024-01-27T00:47:04;8.40;99.90
14079;DHT22;7115;50.150;8.568;2024-01-27T00:49:31;8.40;99.90
14079;DHT22;7115;50.150;8.568;2024-01-27T00:51:58;8.40;99.90
14079;DHT22;7115;50.150;8.568;2024-01-27T00:54:25;8.40;99.90
14079;DHT22;7115;50.150;8.568;2024-01-27T00:56:53;8.30;99.90
14079;DHT22;7115;50.150;8.568;2024-01-27T00:59:21;8.30;99.90
14079;DHT22;7115;50.150;8.568;2024-01-27T01:01:48;8.30;99.90
14079;DHT22;7115;50.150;8.568;2024-01-27T01:04:16;8.20;99.90
14079;DHT22;7115;50.150;8.568;2024-01-27T01:06:43;8.20;99.90
14079;DHT22;7115;50.150;8.568;2024-01-27T01:09:10;8.30;99.90
14079;DHT22;7115;50.150;8.568;2024-01-27T01:11:37;8.10;99.90
14079;DHT22;7115;50.150;8.568;2024-01-27T01:14:06;8.10;99.90
14079;DHT22;7115;50.150;8.568;2024-01-27T01:16:34;8.00;99.90
14079;DHT22;7115;50.150;8.568;2024-01-27T01:19:01;8.00;99.90
14079;DHT22;7115;50.150;8.568;2024-01-27T01:21:28;8.00;99.90
14079;DHT22;7115;50.150;8.568;2024-01-27T01:23:56;7.90;99.90
14079;DHT22;7115;50.150;8.568;2024-01-27T01:26:24;7.90;99.90
14079;DHT22;7115;50.150;8.568;2024-01-27T01:28:51;7.90;99.90
14079;DHT22;7115;50.150;8.568;2024-01-27T01:31:18;7.90;99.90
14079;DHT22;7115;50.150;8.568;2024-01-27T01:33:46;7.80;99.90
14079;DHT22;7115;50.150;8.568;2024-01-27T01:36:14;7.80;99.90
14079;DHT22;7115;50.150;8.568;2024-01-27T01:38:41;7.80;99.90
14079;DHT22;7115;50.150;8.568;2024-01-27T01:41:08;7.70;99.90
14079;DHT22;7115;50.150;8.568;2024-01-27T01:43:35;7.70;99.90
14079;DHT22;7115;50.150;8.568;2024-01-27T01:46:03;7.70;99.90
14079;DHT22;7115;50.150;8.568;2024-01-27T01:48:31;7.70;99.90
14079;DHT22;7115;50.150;8.568;2024-01-27T01:51:00;7.70;99.90
14079;DHT22;7115;50.150;8.568;2024-01-27T01:53:27;7.70;99.90
14079;DHT22;7115;50.150;8.568;2024-01-27T01:55:55;7.60;99.90
14079;DHT22;7115;50.150;8.568;2024-01-27T01:58:22;7.60;99.90
14079;DHT22;7115;50.150;8.568;2024-01-27T02:00:49;7.60;99.90
14079;DHT22;7115;50.150;8.568;2024-01-27T02:03:16;7.50;99.90
14079;DHT22;7115;50.150;8.568;2024-01-27T02:05:43;7.50;99.90
14079;DHT22;7115;50.150;8.568;2024-01-27T02:08:12;7.60;99.90
14079;DHT22;7115;50.150;8.568;2024-01-27T02:10:39;7.40;99.90
14079;DHT22;7115;50.150;8.568;2024-01-27T02:13:16;7.40;99.90
14079;DHT22;7115;50.150;8.568;2024-01-27T02:15:46;7.40;99.90
14079;DHT22;7115;50.150;8.568;2024-01-27T02:18:14;7.30;99.90
14079;DHT22;7115;50.150;8.568;2024-01-27T02:20:41;7.30;99.90
14079;DHT22;7115;50.150;8.568;2024-01-27T02:23:08;7.20;99.90
14079;DHT22;7115;50.150;8.568;2024-01-27T02:25:37;7.10;99.90
14079;DHT22;7115;50.150;8.568;2024-01-27T02:28:05;7.10;99.90
14079;DHT22;7115;50.150;8.568;2024-01-27T02:30:32;7.00;99.90
14079;DHT22;7115;50.150;8.568;2024-01-27T02:32:59;7.00;99.90
14079;DHT22;7115;50.150;8.568;2024-01-27T02:35:26;7.00;99.90
14079;DHT22;7115;50.150;8.568;2024-01-27T02:37:53;6.90;99.90
14079;DHT22;7115;50.150;8.568;2024-01-27T02:40:20;6.90;99.90
14079;DHT22;7115;50.150;8.568;2024-01-27T02:42:49;6.90;99.90
14079;DHT22;7115;50.150;8.568;2024-01-27T02:45:16;6.80;99.90
14079;DHT22;7115;50.150;8.568;2024-01-27T02:47:43;6.80;99.90
14079;DHT22;7115;50.150;8.568;2024-01-27T02:50:11;6.80;99.90
14079;DHT22;7115;50.150;8.568;2024-01-27T02:52:38;6.80;99.90
14079;DHT22;7115;50.150;8.568;2024-01-27T02:55:05;6.80;99.90
14079;DHT22;7115;50.150;8.568;2024-01-27T02:57:33;6.70;99.90
14079;DHT22;7115;50.150;8.568;2024-01-27T03:00:01;6.60;99.90
14079;DHT22;7115;50.150;8.568;2024-01-27T03:02:28;6.50;99.90
14079;DHT22;7115;50.150;8.568;2024-01-27T03:04:55;6.50;99.90
14079;DHT22;7115;50.150;8.568;2024-01-27T03:07:23;6.40;99.90
14079;DHT22;7115;50.150;8.568;2024-01-27T03:09:50;6.40;99.90
14079;DHT22;7115;50.150;8.568;2024-01-27T03:12:16;6.30;99.90
14079;DHT22;7115;50.150;8.568;2024-01-27T03:14:45;6.30;99.90
14079;DHT22;7115;50.150;8.568;2024-01-27T03:17:14;6.30;99.90
14079;DHT22;7115;50.150;8.568;2024-01-27T03:19:41;6.30;99.90
14079;DHT22;7115;50.150;8.568;2024-01-27T03:22:10;6.20;99.90
14079;DHT22;7115;50.150;8.568;2024-01-27T03:24:37;6.20;99.90
14079;DHT22;7115;50.150;8.568;2024-01-27T03:27:04;6.20;99.90
14079;DHT22;7115;50.150;8.568;2024-01-27T03:29:31;6.20;99.90
14079;DHT22;7115;50.150;8.568;2024-01-27T03:31:58;6.20;99.90
14079;DHT22;7115;50.150;8.568;2024-01-27T03:34:27;6.10;99.90
14079;DHT22;7115;50.150;8.568;2024-01-27T03:36:55;6.10;99.90
14079;DHT22;7115;50.150;8.568;2024-01-27T03:39:22;6.10;99.90
14079;DHT22;7115;50.150;8.568;2024-01-27T03:41:49;6.00;99.90
14079;DHT22;7115;50.150;8.568;2024-01-27T03:44:16;6.00;99.90
14079;DHT22;7115;50.150;8.568;2024-01-27T03:46:43;5.90;99.90
14079;DHT22;7115;50.150;8.568;2024-01-27T03:49:10;5.90;99.90
14079;DHT22;7115;50.150;8.568;2024-01-27T03:51:38;5.80;99.90
14079;DHT22;7115;50.150;8.568;2024-01-27T03:54:05;5.80;99.90
14079;DHT22;7115;50.150;8.568;2024-01-27T03:56:34;5.80;99.90
14079;DHT22;7115;50.150;8.568;2024-01-27T03:59:01;5.70;99.90
14079;DHT22;7115;50.150;8.568;2024-01-27T04:01:28;5.60;99.90
14079;DHT22;7115;50.150;8.568;2024-01-27T04:03:55;5.60;99.90
14079;DHT22;7115;50.150;8.568;2024-01-27T04:06:22;5.50;99.90
14079;DHT22;7115;50.150;8.568;2024-01-27T04:08:50;5.50;99.90
14079;DHT22;7115;50.150;8.568;2024-01-27T04:11:21;5.50;99.90
14079;DHT22;7115;50.150;8.568;2024-01-27T04:13:49;5.40;99.90
14079;DHT22;7115;50.150;8.568;2024-01-27T04:16:17;5.40;99.90
14079;DHT22;7115;50.150;8.568;2024-01-27T04:18:44;5.40;99.90
14079;DHT22;7115;50.150;8.568;2024-01-27T04:21:12;5.30;99.90
14079;DHT22;7115;50.150;8.568;2024-01-27T04:23:39;5.20;99.90
14079;DHT22;7115;50.150;8.568;2024-01-27T04:26:07;5.20;99.90
14079;DHT22;7115;50.150;8.568;2024-01-27T04:28:36;5.20;99.90
14079;DHT22;7115;50.150;8.568;2024-01-27T04:31:03;5.10;99.90
14079;DHT22;7115;50.150;8.568;2024-01-27T04:33:30;5.10;99.90
14079;DHT22;7115;50.150;8.568;2024-01-27T04:35:57;5.10;99.90
14079;DHT22;7115;50.150;8.568;2024-01-27T04:38:25;5.10;99.90
14079;DHT22;7115;50.150;8.568;2024-01-27T04:40:52;5.00;99.90
14079;DHT22;7115;50.150;8.568;2024-01-27T04:43:20;4.90;99.90
14079;DHT22;7115;50.150;8.568;2024-01-27T04:45:47;4.80;99.90
14079;DHT22;7115;50.150;8.568;2024-01-27T04:48:16;4.70;99.90
14079;DHT22;7115;50.150;8.568;2024-01-27T04:50:43;4.70;99.90
14079;DHT22;7115;50.150;8.568;2024-01-27T04:53:11;4.60;99.90
14079;DHT22;7115;50.150;8.568;2024-01-27T04:55:38;4.60;99.90
14079;DHT22;7115;50.150;8.568;2024-01-27T04:58:06;4.60;99.90
14079;DHT22;7115;50.150;8.568;2024-01-27T05:00:34;4.60;99.90
14079;DHT22;7115;50.150;8.568;2024-01-27T05:03:02;4.60;99.90
14079;DHT22;7115;50.150;8.568;2024-01-27T05:05:32;4.60;99.90
14079;DHT22;7115;50.150;8.568;2024-01-27T05:08:03;4.60;99.90
14079;DHT22;7115;50.150;8.568;2024-01-27T05:10:30;4.60;99.90
14079;DHT22;7115;50.150;8.568;2024-01-27T05:12:57;4.70;99.90
14079;DHT22;7115;50.150;8.568;2024-01-27T05:15:24;4.60;99.90
14079;DHT22;7115;50.150;8.568;2024-01-27T05:17:52;4.60;99.90
14079;DHT22;7115;50.150;8.568;2024-01-27T05:20:20;4.60;99.90
14079;DHT22;7115;50.150;8.568;2024-01-27T05:22:47;4.60;99.90
14079;DHT22;7115;50.150;8.568;2024-01-27T05:25:14;4.60;99.90
14079;DHT22;7115;50.150;8.568;2024-01-27T05:27:41;4.60;99.90
14079;DHT22;7115;50.150;8.568;2024-01-27T05:30:09;4.60;99.90
14079;DHT22;7115;50.150;8.568;2024-01-27T05:32:36;4.50;99.90
14079;DHT22;7115;50.150;8.568;2024-01-27T05:35:06;4.50;99.90
14079;DHT22;7115;50.150;8.568;2024-01-27T05:37:33;4.50;99.90
14079;DHT22;7115;50.150;8.568;2024-01-27T05:40:00;4.50;99.90
14079;DHT22;7115;50.150;8.568;2024-01-27T05:42:27;4.50;99.90
14079;DHT22;7115;50.150;8.568;2024-01-27T05:44:54;4.50;99.90
14079;DHT22;7115;50.150;8.568;2024-01-27T05:47:21;4.50;99.90
14079;DHT22;7115;50.150;8.568;2024-01-27T05:49:48;4.50;99.90
14079;DHT22;7115;50.150;8.568;2024-01-27T05:52:17;4.40;99.90
14079;DHT22;7115;50.150;8.568;2024-01-27T05:54:51;4.30;99.90
14079;DHT22;7115;50.150;8.568;2024-01-27T05:57:18;4.30;99.90
14079;DHT22;7115;50.150;8.568;2024-01-27T05:59:46;4.20;99.90
14079;DHT22;7115;50.150;8.568;2024-01-27T06:02:13;4.20;99.90
14079;DHT22;7115;50.150;8.568;2024-01-27T06:04:40;4.10;99.90
14079;DHT22;7115;50.150;8.568;2024-01-27T06:07:08;4.10;99.90
14079;DHT22;7115;50.150;8.568;2024-01-27T06:09:38;4.10;99.90
14079;DHT22;7115;50.150;8.568;2024-01-27T06:12:06;4.10;99.90
14079;DHT22;7115;50.150;8.568;2024-01-27T06:14:33;4.00;99.90
14079;DHT22;7115;50.150;8.568;2024-01-27T06:17:01;4.00;99.90
14079;DHT22;7115;50.150;8.568;2024-01-27T06:19:28;3.90;99.90
14079;DHT22;7115;50.150;8.568;2024-01-27T06:21:55;3.90;99.90
14079;DHT22;7115;50.150;8.568;2024-01-27T06:24:22;3.80;99.90
14079;DHT22;7115;50.150;8.568;2024-01-27T06:26:50;3.70;99.90
14079;DHT22;7115;50.150;8.568;2024-01-27T06:29:17;3.60;99.90
14079;DHT22;7115;50.150;8.568;2024-01-27T06:31:45;3.50;99.90
14079;DHT22;7115;50.150;8.568;2024-01-27T06:34:12;3.50;99.90
14079;DHT22;7115;50.150;8.568;2024-01-27T06:36:40;3.60;99.90
14079;DHT22;7115;50.150;8.568;2024-01-27T06:39:07;3.50;99.90
14079;DHT22;7115;50.150;8.568;2024-01-27T06:41:34;3.50;99.90
14079;DHT22;7115;50.150;8.568;2024-01-27T06:44:03;3.50;99.90
14079;DHT22;7115;50.150;8.568;2024-01-27T06:46:30;3.60;99.90
14079;DHT22;7115;50.150;8.568;2024-01-27T06:48:57;3.50;99.90
14079;DHT22;7115;50.150;8.568;2024-01-27T06:51:25;3.50;99.90
14079;DHT22;7115;50.150;8.568;2024-01-27T06:53:52;3.50;99.90
14079;DHT22;7115;50.150;8.568;2024-01-27T06:56:19;3.50;99.90
14079;DHT22;7115;50.150;8.568;2024-01-27T06:58:46;3.40;99.90
14079;DHT22;7115;50.150;8.568;2024-01-27T07:01:14;3.40;99.90
14079;DHT22;7115;50.150;8.568;2024-01-27T07:03:41;3.40;99.90
14079;DHT22;7115;50.150;8.568;2024-01-27T07:06:08;3.30;99.90
14079;DHT22;7115;50.150;8.568;2024-01-27T07:08:35;3.20;99.90
14079;DHT22;7115;50.150;8.568;2024-01-27T07:11:05;3.40;99.90
14079;DHT22;7115;50.150;8.568;2024-01-27T07:13:32;3.40;99.90
14079;DHT22;7115;50.150;8.568;2024-01-27T07:15:59;3.40;99.90
14079;DHT22;7115;50.150;8.568;2024-01-27T07:18:27;3.50;99.90
14079;DHT22;7115;50.150;8.568;2024-01-27T07:20:56;3.50;99.90
14079;DHT22;7115;50.150;8.568;2024-01-27T07:23:26;3.60;99.90
14079;DHT22;7115;50.150;8.568;2024-01-27T07:25:53;3.70;99.90
14079;DHT22;7115;50.150;8.568;2024-01-27T07:28:20;3.80;99.90
14079;DHT22;7115;50.150;8.568;2024-01-27T07:30:47;3.90;99.90
14079;DHT22;7115;50.150;8.568;2024-01-27T07:33:14;4.00;99.90
14079;DHT22;7115;50.150;8.568;2024-01-27T07:35:43;4.10;99.90
14079;DHT22;7115;50.150;8.568;2024-01-27T07:38:10;4.40;99.90
14079;DHT22;7115;50.150;8.568;2024-01-27T07:40:37;4.70;99.90
14079;DHT22;7115;50.150;8.568;2024-01-27T07:43:04;4.90;99.90
14079;DHT22;7115;50.150;8.568;2024-01-27T07:45:31;5.20;99.90
14079;DHT22;7115;50.150;8.568;2024-01-27T07:47:58;5.50;99.90
14079;DHT22;7115;50.150;8.568;2024-01-27T07:50:28;5.70;99.90
14079;DHT22;7115;50.150;8.568;2024-01-27T07:52:57;6.10;99.90
14079;DHT22;7115;50.150;8.568;2024-01-27T07:55:24;6.40;99.90
14079;DHT22;7115;50.150;8.568;2024-01-27T07:57:51;6.70;99.90
14079;DHT22;7115;50.150;8.568;2024-01-27T08:00:18;7.10;99.90
14079;DHT22;7115;50.150;8.568;2024-01-27T08:02:45;7.50;99.90
14079;DHT22;7115;50.150;8.568;2024-01-27T08:05:12;7.90;99.90
14079;DHT22;7115;50.150;8.568;2024-01-27T08:07:40;8.30;99.90
14079;DHT22;7115;50.150;8.568;2024-01-27T08:10:08;8.60;99.90
14079;DHT22;7115;50.150;8.568;2024-01-27T08:12:37;8.80;99.90
14079;DHT22;7115;50.150;8.568;2024-01-27T08:15:06;9.00;99.90
14079;DHT22;7115;50.150;8.568;2024-01-27T08:17:33;9.40;99.90
14079;DHT22;7115;50.150;8.568;2024-01-27T08:20:00;9.50;99.90
14079;DHT22;7115;50.150;8.568;2024-01-27T08:22:27;9.60;99.90
14079;DHT22;7115;50.150;8.568;2024-01-27T08:24:56;9.70;99.90
14079;DHT22;7115;50.150;8.568;2024-01-27T08:27:25;9.80;99.90
14079;DHT22;7115;50.150;8.568;2024-01-27T08:29:52;9.80;99.90
14079;DHT22;7115;50.150;8.568;2024-01-27T08:32:23;9.80;99.90
14079;DHT22;7115;50.150;8.568;2024-01-27T08:34:51;9.90;99.90
14079;DHT22;7115;50.150;8.568;2024-01-27T08:37:19;10.00;99.90
14079;DHT22;7115;50.150;8.568;2024-01-27T08:39:46;10.30;99.90
14079;DHT22;7115;50.150;8.568;2024-01-27T08:42:13;10.70;99.90
14079;DHT22;7115;50.150;8.568;2024-01-27T08:44:42;11.00;99.90
14079;DHT22;7115;50.150;8.568;2024-01-27T08:47:09;11.20;99.90
14079;DHT22;7115;50.150;8.568;2024-01-27T08:49:36;11.40;99.90
14079;DHT22;7115;50.150;8.568;2024-01-27T08:52:03;11.40;99.90
14079;DHT22;7115;50.150;8.568;2024-01-27T08:54:31;11.60;99.90
14079;DHT22;7115;50.150;8.568;2024-01-27T08:56:58;11.90;99.90
14079;DHT22;7115;50.150;8.568;2024-01-27T08:59:25;12.10;99.90
14079;DHT22;7115;50.150;8.568;2024-01-27T09:01:53;12.10;99.90
14079;DHT22;7115;50.150;8.568;2024-01-27T09:04:20;12.10;99.90
14079;DHT22;7115;50.150;8.568;2024-01-27T09:06:47;12.20;99.90
14079;DHT22;7115;50.150;8.568;2024-01-27T09:09:15;12.30;99.90
14079;DHT22;7115;50.150;8.568;2024-01-27T09:11:42;12.40;99.90
14079;DHT22;7115;50.150;8.568;2024-01-27T09:14:09;12.40;99.90
14079;DHT22;7115;50.150;8.568;2024-01-27T09:16:36;12.40;99.90
14079;DHT22;7115;50.150;8.568;2024-01-27T09:19:05;12.50;99.90
14079;DHT22;7115;50.150;8.568;2024-01-27T09:21:32;12.90;99.90
14079;DHT22;7115;50.150;8.568;2024-01-27T09:24:00;13.30;99.80
14079;DHT22;7115;50.150;8.568;2024-01-27T09:26:29;13.70;99.40
14079;DHT22;7115;50.150;8.568;2024-01-27T09:28:56;13.90;99.00
14079;DHT22;7115;50.150;8.568;2024-01-27T09:31:23;14.10;98.60
14079;DHT22;7115;50.150;8.568;2024-01-27T09:33:52;14.10;98.30
14079;DHT22;7115;50.150;8.568;2024-01-27T09:36:21;14.00;98.10
14079;DHT22;7115;50.150;8.568;2024-01-27T09:38:49;13.80;97.80
14079;DHT22;7115;50.150;8.568;2024-01-27T09:41:16;13.70;98.00
14079;DHT22;7115;50.150;8.568;2024-01-27T09:43:44;13.80;97.90
14079;DHT22;7115;50.150;8.568;2024-01-27T09:46:12;13.90;97.80
14079;DHT22;7115;50.150;8.568;2024-01-27T09:48:39;14.10;97.60
14079;DHT22;7115;50.150;8.568;2024-01-27T09:51:08;14.20;97.50
14079;DHT22;7115;50.150;8.568;2024-01-27T09:53:37;14.30;97.30
14079;DHT22;7115;50.150;8.568;2024-01-27T09:56:04;14.50;97.00
14079;DHT22;7115;50.150;8.568;2024-01-27T09:58:33;14.60;96.90
14079;DHT22;7115;50.150;8.568;2024-01-27T10:01:00;14.80;96.60
14079;DHT22;7115;50.150;8.568;2024-01-27T10:03:29;15.10;96.50
14079;DHT22;7115;50.150;8.568;2024-01-27T10:05:57;15.60;96.10
14079;DHT22;7115;50.150;8.568;2024-01-27T10:08:24;15.80;95.70
14079;DHT22;7115;50.150;8.568;2024-01-27T10:10:55;16.00;95.30
14079;DHT22;7115;50.150;8.568;2024-01-27T10:13:25;16.00;95.10
14079;DHT22;7115;50.150;8.568;2024-01-27T10:16:05;16.20;94.90
14079;DHT22;7115;50.150;8.568;2024-01-27T10:18:33;16.10;94.40
14079;DHT22;7115;50.150;8.568;2024-01-27T10:21:11;15.90;94.50
14079;DHT22;7115;50.150;8.568;2024-01-27T10:23:39;16.00;94.30
14079;DHT22;7115;50.150;8.568;2024-01-27T10:26:09;15.90;93.90
14079;DHT22;7115;50.150;8.568;2024-01-27T10:28:35;15.80;93.90
14079;DHT22;7115;50.150;8.568;2024-01-27T10:31:08;15.90;93.60
14079;DHT22;7115;50.150;8.568;2024-01-27T10:33:35;16.00;93.40
14079;DHT22;7115;50.150;8.568;2024-01-27T10:36:03;16.10;93.30
14079;DHT22;7115;50.150;8.568;2024-01-27T10:38:37;16.40;92.90
14079;DHT22;7115;50.150;8.568;2024-01-27T10:41:09;16.50;92.60
14079;DHT22;7115;50.150;8.568;2024-01-27T10:43:39;16.80;92.60
14079;DHT22;7115;50.150;8.568;2024-01-27T10:46:08;17.20;92.40
14079;DHT22;7115;50.150;8.568;2024-01-27T10:48:36;17.60;92.00
14079;DHT22;7115;50.150;8.568;2024-01-27T10:51:09;18.10;91.70
14079;DHT22;7115;50.150;8.568;2024-01-27T10:53:38;18.40;91.20
14079;DHT22;7115;50.150;8.568;2024-01-27T10:56:08;18.60;90.80
14079;DHT22;7115;50.150;8.568;2024-01-27T10:58:37;18.70;90.40
14079;DHT22;7115;50.150;8.568;2024-01-27T11:01:10;18.70;90.10
14079;DHT22;7115;50.150;8.568;2024-01-27T11:03:39;18.60;89.30
14079;DHT22;7115;50.150;8.568;2024-01-27T11:06:07;18.40;88.70
14079;DHT22;7115;50.150;8.568;2024-01-27T11:08:35;18.00;88.70
14079;DHT22;7115;50.150;8.568;2024-01-27T11:11:10;17.50;88.80
14079;DHT22;7115;50.150;8.568;2024-01-27T11:13:37;16.90;88.80
14079;DHT22;7115;50.150;8.568;2024-01-27T11:16:06;16.20;89.30
14079;DHT22;7115;50.150;8.568;2024-01-27T11:18:42;15.60;90.00
14079;DHT22;7115;50.150;8.568;2024-01-27T11:21:13;15.20;90.20
14079;DHT22;7115;50.150;8.568;2024-01-27T11:23:40;15.00;90.90
14079;DHT22;7115;50.150;8.568;2024-01-27T11:26:10;14.70;90.70
14079;DHT22;7115;50.150;8.568;2024-01-27T11:28:39;14.40;90.80
14079;DHT22;7115;50.150;8.568;2024-01-27T11:31:08;14.00;91.00
14079;DHT22;7115;50.150;8.568;2024-01-27T11:33:41;13.70;91.40
14079;DHT22;7115;50.150;8.568;2024-01-27T11:36:18;13.60;91.70
14079;DHT22;7115;50.150;8.568;2024-01-27T11:38:46;13.30;91.90
14079;DHT22;7115;50.150;8.568;2024-01-27T11:41:23;13.00;92.10
14079;DHT22;7115;50.150;8.568;2024-01-27T11:43:54;12.90;92.40
14079;DHT22;7115;50.150;8.568;2024-01-27T11:46:21;12.60;92.40
14079;DHT22;7115;50.150;8.568;2024-01-27T11:48:49;12.20;92.70
14079;DHT22;7115;50.150;8.568;2024-01-27T11:51:17;11.90;93.00
14079;DHT22;7115;50.150;8.568;2024-01-27T11:53:45;11.50;93.40
14079;DHT22;7115;50.150;8.568;2024-01-27T11:56:14;11.10;93.60
14079;DHT22;7115;50.150;8.568;2024-01-27T11:58:46;10.80;94.00
14079;DHT22;7115;50.150;8.568;2024-01-27T12:01:14;10.70;94.30
14079;DHT22;7115;50.150;8.568;2024-01-27T12:03:42;10.50;94.50
14079;DHT22;7115;50.150;8.568;2024-01-27T12:06:12;10.40;94.60
14079;DHT22;7115;50.150;8.568;2024-01-27T12:08:41;10.30;94.80
14079;DHT22;7115;50.150;8.568;2024-01-27T12:11:15;10.10;94.90
14079;DHT22;7115;50.150;8.568;2024-01-27T12:13:48;10.00;95.20
14079;DHT22;7115;50.150;8.568;2024-01-27T12:16:15;9.80;95.30
14079;DHT22;7115;50.150;8.568;2024-01-27T12:18:43;9.70;95.50
14079;DHT22;7115;50.150;8.568;2024-01-27T12:21:10;9.60;95.80
14079;DHT22;7115;50.150;8.568;2024-01-27T12:23:49;9.50;96.00
14079;DHT22;7115;50.150;8.568;2024-01-27T12:26:18;9.50;96.20
14079;DHT22;7115;50.150;8.568;2024-01-27T12:28:46;9.50;96.20
14079;DHT22;7115;50.150;8.568;2024-01-27T12:31:15;9.60;96.30
14079;DHT22;7115;50.150;8.568;2024-01-27T12:33:51;9.60;96.30
14079;DHT22;7115;50.150;8.568;2024-01-27T12:36:19;9.50;96.40
14079;DHT22;7115;50.150;8.568;2024-01-27T12:38:53;9.40;96.50
14079;DHT22;7115;50.150;8.568;2024-01-27T12:41:23;9.40;96.60
14079;DHT22;7115;50.150;8.568;2024-01-27T12:43:50;9.40;96.60
14079;DHT22;7115;50.150;8.568;2024-01-27T12:46:17;9.40;96.60
14079;DHT22;7115;50.150;8.568;2024-01-27T12:48:45;9.30;96.80
14079;DHT22;7115;50.150;8.568;2024-01-27T12:51:12;9.30;96.90
14079;DHT22;7115;50.150;8.568;2024-01-27T12:53:42;9.40;96.90
14079;DHT22;7115;50.150;8.568;2024-01-27T12:56:10;9.40;96.90
14079;DHT22;7115;50.150;8.568;2024-01-27T12:58:39;9.40;96.90
14079;DHT22;7115;50.150;8.568;2024-01-27T13:01:07;9.50;97.00
14079;DHT22;7115;50.150;8.568;2024-01-27T13:03:35;9.50;97.00
14079;DHT22;7115;50.150;8.568;2024-01-27T13:06:03;9.50;97.00
14079;DHT22;7115;50.150;8.568;2024-01-27T13:08:30;9.50;97.10
14079;DHT22;7115;50.150;8.568;2024-01-27T13:10:57;9.50;97.10
14079;DHT22;7115;50.150;8.568;2024-01-27T13:13:24;9.60;97.20
14079;DHT22;7115;50.150;8.568;2024-01-27T13:15:53;9.60;97.10
14079;DHT22;7115;50.150;8.568;2024-01-27T13:18:20;9.70;97.20
14079;DHT22;7115;50.150;8.568;2024-01-27T13:20:48;9.80;97.20
14079;DHT22;7115;50.150;8.568;2024-01-27T13:23:14;9.80;97.10
14079;DHT22;7115;50.150;8.568;2024-01-27T13:25:41;9.90;97.00
14079;DHT22;7115;50.150;8.568;2024-01-27T13:28:23;9.90;97.00
14079;DHT22;7115;50.150;8.568;2024-01-27T13:30:50;10.00;97.00
14079;DHT22;7115;50.150;8.568;2024-01-27T13:33:18;10.00;96.90
14079;DHT22;7115;50.150;8.568;2024-01-27T13:35:45;10.00;96.90
14079;DHT22;7115;50.150;8.568;2024-01-27T13:38:14;10.00;96.80
14079;DHT22;7115;50.150;8.568;2024-01-27T13:40:42;10.00;96.70
14079;DHT22;7115;50.150;8.568;2024-01-27T13:43:09;9.90;96.80
14079;DHT22;7115;50.150;8.568;2024-01-27T13:45:36;9.90;96.80
14079;DHT22;7115;50.150;8.568;2024-01-27T13:48:04;9.90;96.90
14079;DHT22;7115;50.150;8.568;2024-01-27T13:50:32;9.90;96.90
14079;DHT22;7115;50.150;8.568;2024-01-27T13:52:59;10.00;96.70
14079;DHT22;7115;50.150;8.568;2024-01-27T13:55:26;10.10;96.80
14079;DHT22;7115;50.150;8.568;2024-01-27T13:57:54;10.20;96.80
14079;DHT22;7115;50.150;8.568;2024-01-27T14:00:21;10.30;96.70
14079;DHT22;7115;50.150;8.568;2024-01-27T14:02:48;10.30;96.60
14079;DHT22;7115;50.150;8.568;2024-01-27T14:05:15;10.40;96.70
14079;DHT22;7115;50.150;8.568;2024-01-27T14:07:45;10.40;96.50
14079;DHT22;7115;50.150;8.568;2024-01-27T14:10:12;10.20;96.40
14079;DHT22;7115;50.150;8.568;2024-01-27T14:12:39;10.10;96.40
14079;DHT22;7115;50.150;8.568;2024-01-27T14:15:07;10.00;96.50
14079;DHT22;7115;50.150;8.568;2024-01-27T14:17:35;9.90;96.50
14079;DHT22;7115;50.150;8.568;2024-01-27T14:20:06;9.80;96.60
14079;DHT22;7115;50.150;8.568;2024-01-27T14:22:36;9.90;96.70
14079;DHT22;7115;50.150;8.568;2024-01-27T14:25:05;10.10;96.70
14079;DHT22;7115;50.150;8.568;2024-01-27T14:27:34;10.10;96.60
14079;DHT22;7115;50.150;8.568;2024-01-27T14:30:02;10.20;96.50
14079;DHT22;7115;50.150;8.568;2024-01-27T14:32:29;10.30;96.50
14079;DHT22;7115;50.150;8.568;2024-01-27T14:34:57;10.30;96.50
14079;DHT22;7115;50.150;8.568;2024-01-27T14:37:24;10.30;96.40
14079;DHT22;7115;50.150;8.568;2024-01-27T14:39:51;10.20;96.30
14079;DHT22;7115;50.150;8.568;2024-01-27T14:42:19;10.10;96.40
14079;DHT22;7115;50.150;8.568;2024-01-27T14:44:46;10.10;96.40
14079;DHT22;7115;50.150;8.568;2024-01-27T14:47:16;10.00;96.40
14079;DHT22;7115;50.150;8.568;2024-01-27T14:49:43;10.00;96.50
14079;DHT22;7115;50.150;8.568;2024-01-27T14:52:12;10.00;96.50
14079;DHT22;7115;50.150;8.568;2024-01-27T14:54:39;10.00;96.50
14079;DHT22;7115;50.150;8.568;2024-01-27T14:57:07;10.00;96.40
14079;DHT22;7115;50.150;8.568;2024-01-27T14:59:38;9.90;96.30
14079;DHT22;7115;50.150;8.568;2024-01-27T15:02:06;9.80;96.20
14079;DHT22;7115;50.150;8.568;2024-01-27T15:04:36;9.70;96.30
14079;DHT22;7115;50.150;8.568;2024-01-27T15:07:03;9.60;96.30
14079;DHT22;7115;50.150;8.568;2024-01-27T15:09:31;9.60;96.50
14079;DHT22;7115;50.150;8.568;2024-01-27T15:11:58;9.60;96.60
14079;DHT22;7115;50.150;8.568;2024-01-27T15:14:25;9.60;96.70
14079;DHT22;7115;50.150;8.568;2024-01-27T15:16:53;9.60;96.70
14079;DHT22;7115;50.150;8.568;2024-01-27T15:19:24;9.70;96.80
14079;DHT22;7115;50.150;8.568;2024-01-27T15:21:51;9.70;96.80
14079;DHT22;7115;50.150;8.568;2024-01-27T15:24:18;9.70;96.80
14079;DHT22;7115;50.150;8.568;2024-01-27T15:26:46;9.60;96.80
14079;DHT22;7115;50.150;8.568;2024-01-27T15:29:13;9.60;96.80
14079;DHT22;7115;50.150;8.568;2024-01-27T15:31:40;9.60;96.80
14079;DHT22;7115;50.150;8.568;2024-01-27T15:34:08;9.50;96.80
14079;DHT22;7115;50.150;8.568;2024-01-27T15:36:35;9.50;96.80
14079;DHT22;7115;50.150;8.568;2024-01-27T15:39:02;9.50;96.90
14079;DHT22;7115;50.150;8.568;2024-01-27T15:41:30;9.40;96.90
14079;DHT22;7115;50.150;8.568;2024-01-27T15:43:57;9.40;96.90
14079;DHT22;7115;50.150;8.568;2024-01-27T15:46:25;9.40;97.00
14079;DHT22;7115;50.150;8.568;2024-01-27T15:48:52;9.40;97.00
14079;DHT22;7115;50.150;8.568;2024-01-27T15:51:21;9.40;97.00
14079;DHT22;7115;50.150;8.568;2024-01-27T15:53:48;9.30;97.00
14079;DHT22;7115;50.150;8.568;2024-01-27T15:56:16;9.30;97.10
14079;DHT22;7115;50.150;8.568;2024-01-27T15:58:43;9.20;97.20
14079;DHT22;7115;50.150;8.568;2024-01-27T16:01:10;9.20;97.30